Atchison, KS

7:19 AM CST on December 10, 2019 (GMT -0600)
Newmann Farm | | Change Station

Elev 873 ft 39.64 °N, 95.11 °W | Updated 5 minutes ago

Partly Cloudy
Partly Cloudy
23.4 °F
Feels Like 23 °F
N
0
Wind Variable Wind from WNW
Gusts 0.0 mph

Today
High -- | Low -- °F
--% Chance of Precip.
Yesterday
High -- | Low -- °F
Precip. -- in
Pressure 30.24 in
Visibility 10.0 miles
Clouds Overcast 6000 ft
Windchill 23 °F
Dew Point 11 °F
Humidity 62%
Rainfall 0.00 in
Snow Depth Not available.
7:29 AM 4:56 PM
Waxing Gibbous, 97% visible
METAR KSTJ 101253Z 26004KT 10SM OVC060 M05/M09 A3020 RMK AO2 SLP239 T10501089
Pressure 30.24 in
Visibility 10.0 miles
Clouds Overcast 6000 ft
Windchill 23 °F
Dew Point 11 °F
Humidity 62%
Rainfall 0.00 in
Snow Depth Not available.
7:29 AM 4:56 PM
Waxing Gibbous, 97% visible
METAR KSTJ 101253Z 26004KT 10SM OVC060 M05/M09 A3020 RMK AO2 SLP239 T10501089

Get Severe Weather Alerts

Thanks for signing up!

Be on the lookout for a verification email in your inbox.

You'll start receiving the daily forecast at 6 AM.

×

10-Day Weather Forecast

Almanac

Astronomy

Dec. 10, 2019 Rise Set
Actual Time
Civil Twilight
Nautical Twilight
Astronomical Twilight
Moon
Length of Visible Light
Length of Day
Tomorrow will be .
, % of the Moon is Illuminated

Today's Extremes

State Highs State Lows

Community

WunderPhotos

Category 6

Welcome to Category 6. This is the collective home for Weather Underground's featured writeups by Dr. Jeff Masters (right), Bob Henson (left), Chris Burt, and other regular contributors.

Nearby

Air Quality

  Air Quality AQ Index Pollutant
Not available.

Snow Depth

Station Depth Elevation

Earthquake Activity

City Distance Mag. Time & Date
Minimum magnitude displayed is 2.5.

Coastal Water Temperatures

Place Temperature

Stations

Nearby Weather Stations

Station Location Temp. Windchill Dew Point Humidity Wind Precip. Elev Updated Type
                   

Watches & Warnings

There are currently no watches in effect.